Time;durP1;ratioP1;P1;durP2;ratioP2;P2;SDS_P1;SDS_P2;PMS_P1;PMS_P2;Temp;Humidity;BMP_temperature;BMP_pressure;BME280_temperature;BME280_humidity;BME280_pressure;Samples;Min_cycle;Max_cycle;Signal;HPM_P1;HPM_P2
2023/09/11 00:00:27;;;;;;;19.88;12.57;;;24.50;99.90;;;;;;5102272;28;20478;-68
2023/09/11 00:02:53;;;;;;;19.33;12.35;;;24.50;99.90;;;;;;5102838;28;20031;-67
2023/09/11 00:05:19;;;;;;;20.48;12.75;;;24.50;99.90;;;;;;5104440;28;20020;-68
2023/09/11 00:07:44;;;;;;;22.75;12.73;;;24.50;99.90;;;;;;5104576;28;20103;-69
2023/09/11 00:10:10;;;;;;;21.35;12.90;;;24.50;99.90;;;;;;5104964;28;20147;-68
2023/09/11 00:12:35;;;;;;;19.83;13.15;;;24.50;99.90;;;;;;5102286;28;20057;-69
2023/09/11 00:15:01;;;;;;;21.23;13.10;;;24.50;99.90;;;;;;5102514;28;20036;-68
2023/09/11 00:17:27;;;;;;;21.23;13.02;;;24.40;99.90;;;;;;5103799;28;20050;-67
2023/09/11 00:19:53;;;;;;;22.75;13.38;;;24.50;99.90;;;;;;5105831;28;20020;-67
2023/09/11 00:22:19;;;;;;;24.15;14.07;;;24.40;99.90;;;;;;5103868;28;20111;-67
2023/09/11 00:24:44;;;;;;;20.25;13.55;;;24.40;99.90;;;;;;5102880;28;20099;-69
2023/09/11 00:27:10;;;;;;;25.55;12.55;;;24.50;99.90;;;;;;5106003;28;20020;-68
2023/09/11 00:29:35;;;;;;;20.98;13.10;;;24.40;99.90;;;;;;5107980;28;20039;-70
2023/09/11 00:32:01;;;;;;;21.75;13.48;;;24.40;99.90;;;;;;5103087;28;20043;-67
2023/09/11 00:34:26;;;;;;;17.38;12.63;;;24.40;99.90;;;;;;5108462;28;20027;-68
2023/09/11 00:36:52;;;;;;;21.70;13.25;;;24.40;99.90;;;;;;5105271;28;20081;-67
2023/09/11 00:39:18;;;;;;;23.90;14.00;;;24.40;99.90;;;;;;5109706;28;20028;-67
2023/09/11 00:41:44;;;;;;;21.25;14.00;;;24.40;99.90;;;;;;5108223;28;20405;-68
2023/09/11 00:44:10;;;;;;;19.77;13.45;;;24.50;99.90;;;;;;5107117;28;20043;-70
2023/09/11 00:46:36;;;;;;;23.42;14.15;;;24.50;99.90;;;;;;5107196;28;20032;-68
2023/09/11 00:49:01;;;;;;;23.20;14.55;;;24.50;99.90;;;;;;5105403;28;20035;-69
2023/09/11 00:51:28;;;;;;;22.10;14.55;;;24.40;99.90;;;;;;5108266;28;20028;-67
2023/09/11 00:53:54;;;;;;;21.08;13.85;;;24.40;99.90;;;;;;5098257;28;20034;-67
2023/09/11 00:56:20;;;;;;;30.50;14.93;;;24.40;99.90;;;;;;5100840;28;20039;-69
2023/09/11 00:58:47;;;;;;;25.52;15.35;;;24.40;99.90;;;;;;5105094;28;20035;-68
2023/09/11 01:01:13;;;;;;;23.90;16.08;;;24.40;99.90;;;;;;5108072;28;20475;-68
2023/09/11 01:03:38;;;;;;;23.08;15.38;;;24.40;99.90;;;;;;5105847;28;20023;-68
2023/09/11 01:06:04;;;;;;;22.02;15.00;;;24.30;99.90;;;;;;5105118;28;20023;-68
2023/09/11 01:08:30;;;;;;;24.73;15.57;;;24.40;99.90;;;;;;5116329;28;20497;-69
2023/09/11 01:10:56;;;;;;;24.42;15.45;;;24.30;99.90;;;;;;5097728;28;20042;-68
2023/09/11 01:13:23;;;;;;;21.80;15.55;;;24.30;99.90;;;;;;5110101;28;20039;-67
2023/09/11 01:16:02;;;;;;;25.35;17.00;;;24.30;99.90;;;;;;5107395;28;20055;-69
2023/09/11 01:18:34;;;;;;;26.67;16.80;;;24.30;99.90;;;;;;5115182;28;20034;-68
2023/09/11 01:21:26;;;;;;;21.85;16.60;;;24.20;99.90;;;;;;5107770;28;20107;-68
2023/09/11 01:24:08;;;;;;;25.00;16.85;;;24.20;99.90;;;;;;5102989;28;20366;-67
2023/09/11 01:26:51;;;;;;;24.02;17.20;;;24.20;99.90;;;;;;5097279;28;20024;-67
2023/09/11 01:29:27;;;;;;;27.45;17.42;;;24.20;99.90;;;;;;5102893;28;20039;-67
2023/09/11 01:31:54;;;;;;;24.70;17.20;;;24.20;99.90;;;;;;5103843;28;20047;-68
2023/09/11 01:34:20;;;;;;;25.42;17.80;;;24.10;99.90;;;;;;5108585;28;20028;-68
2023/09/11 01:36:45;;;;;;;27.60;18.13;;;24.20;99.90;;;;;;5113165;28;20382;-68
2023/09/11 01:39:11;;;;;;;22.65;16.98;;;24.10;99.90;;;;;;5106899;28;20035;-68
2023/09/11 01:41:44;;;;;;;29.52;16.83;;;24.20;99.90;;;;;;5094865;28;20034;-68
2023/09/11 01:44:23;;;;;;;28.15;17.05;;;24.10;99.90;;;;;;5110372;28;20024;-69
2023/09/11 01:46:51;;;;;;;26.80;18.17;;;24.10;99.90;;;;;;5113188;28;20027;-67
2023/09/11 01:49:19;;;;;;;28.15;18.42;;;24.00;99.90;;;;;;5105242;28;20028;-68
2023/09/11 01:51:46;;;;;;;23.48;17.40;;;24.00;99.90;;;;;;5105642;28;20483;-69
2023/09/11 01:54:12;;;;;;;26.50;18.48;;;24.00;99.90;;;;;;5115239;28;20467;-67
2023/09/11 01:56:38;;;;;;;26.23;17.85;;;23.90;99.90;;;;;;5112733;28;20020;-68
2023/09/11 01:59:03;;;;;;;26.88;18.58;;;23.90;99.90;;;;;;5109251;28;20050;-68
2023/09/11 02:01:29;;;;;;;25.83;18.17;;;23.90;99.90;;;;;;5110080;28;20111;-68
2023/09/11 02:03:54;;;;;;;27.50;19.35;;;23.80;99.90;;;;;;5102843;28;20024;-69
2023/09/11 02:06:20;;;;;;;27.58;19.00;;;23.80;99.90;;;;;;5099887;28;20442;-68
2023/09/11 02:08:46;;;;;;;27.60;19.70;;;23.80;99.90;;;;;;5111787;28;20507;-69
2023/09/11 02:11:11;;;;;;;28.20;20.00;;;23.80;99.90;;;;;;5110626;28;20031;-69
2023/09/11 02:13:37;;;;;;;25.67;19.95;;;23.70;99.90;;;;;;5095865;28;20089;-68
2023/09/11 02:16:03;;;;;;;27.10;20.38;;;23.70;99.90;;;;;;5103508;28;20032;-67
2023/09/11 02:18:28;;;;;;;28.38;21.30;;;23.70;99.90;;;;;;5113922;27;20028;-67
2023/09/11 02:20:54;;;;;;;25.33;21.30;;;23.60;99.90;;;;;;5114071;28;20097;-70
2023/09/11 02:23:20;;;;;;;28.52;21.65;;;23.50;99.90;;;;;;5114969;28;20066;-67
2023/09/11 02:25:48;;;;;;;28.08;21.52;;;23.50;99.90;;;;;;5103676;28;20020;-68
2023/09/11 02:28:14;;;;;;;27.95;22.52;;;23.50;99.90;;;;;;5100314;28;20016;-68
2023/09/11 02:30:39;;;;;;;29.33;21.90;;;23.50;99.90;;;;;;5107698;28;20035;-67
2023/09/11 02:33:05;;;;;;;28.90;23.15;;;23.40;99.90;;;;;;5096725;28;20033;-68
2023/09/11 02:35:31;;;;;;;27.38;21.80;;;23.40;99.90;;;;;;5101480;28;20037;-68
2023/09/11 02:38:00;;;;;;;29.85;22.88;;;23.40;99.90;;;;;;5102223;28;20133;-68
2023/09/11 02:40:25;;;;;;;28.02;23.42;;;23.40;99.90;;;;;;5110778;28;20136;-69
2023/09/11 02:42:51;;;;;;;35.65;24.77;;;23.30;99.90;;;;;;5111732;28;20471;-68
2023/09/11 02:45:17;;;;;;;29.33;24.58;;;23.30;99.90;;;;;;5105670;28;20365;-70
2023/09/11 02:47:42;;;;;;;32.22;24.15;;;23.30;99.90;;;;;;5108806;28;20055;-68
2023/09/11 02:50:11;;;;;;;31.80;23.88;;;23.30;99.90;;;;;;5103563;28;20082;-67
2023/09/11 02:52:36;;;;;;;32.45;24.80;;;23.20;99.90;;;;;;5097359;28;20149;-67
2023/09/11 02:55:02;;;;;;;30.55;24.27;;;23.20;99.90;;;;;;5113766;28;20453;-68
2023/09/11 02:57:28;;;;;;;30.95;24.98;;;23.20;99.90;;;;;;5106811;28;20568;-67
2023/09/11 02:59:55;;;;;;;33.60;25.40;;;23.10;99.90;;;;;;5099048;28;20067;-67
2023/09/11 03:02:21;;;;;;;32.45;27.02;;;23.10;99.90;;;;;;5109252;28;20460;-68
2023/09/11 03:04:50;;;;;;;31.73;25.23;;;23.00;99.90;;;;;;5104142;28;20107;-68
2023/09/11 03:07:17;;;;;;;30.65;26.75;;;23.00;99.90;;;;;;5107244;28;20364;-66
2023/09/11 03:09:44;;;;;;;31.58;26.15;;;22.90;99.90;;;;;;5109354;28;20052;-69
2023/09/11 03:12:09;;;;;;;31.40;25.63;;;22.90;99.90;;;;;;5113814;28;20040;-68
2023/09/11 03:14:35;;;;;;;31.45;26.15;;;22.90;99.90;;;;;;5096740;28;20361;-67
2023/09/11 03:17:01;;;;;;;32.72;25.05;;;22.80;99.90;;;;;;5109389;28;20547;-67
2023/09/11 03:19:26;;;;;;;30.48;26.85;;;22.80;99.90;;;;;;5101126;28;20496;-68
2023/09/11 03:21:54;;;;;;;35.00;27.73;;;22.70;99.90;;;;;;5104871;28;20023;-69
2023/09/11 03:24:20;;;;;;;34.92;27.67;;;22.70;99.90;;;;;;5105280;28;20030;-69
2023/09/11 03:26:46;;;;;;;34.53;27.50;;;22.70;99.90;;;;;;5111612;28;20023;-67
2023/09/11 03:29:12;;;;;;;34.45;28.65;;;22.60;99.90;;;;;;5099639;28;20024;-70
2023/09/11 03:31:41;;;;;;;32.92;28.23;;;22.60;99.90;;;;;;5104548;28;20387;-69
2023/09/11 03:34:08;;;;;;;32.30;27.38;;;22.60;99.90;;;;;;5107107;28;20035;-68
2023/09/11 03:36:33;;;;;;;34.05;28.33;;;22.50;99.90;;;;;;5104578;28;20027;-69
2023/09/11 03:38:59;;;;;;;32.53;27.73;;;22.50;99.90;;;;;;5108878;28;20028;-67
2023/09/11 03:41:25;;;;;;;36.63;28.50;;;22.50;99.90;;;;;;5094805;28;20031;-67
2023/09/11 03:43:50;;;;;;;35.47;28.25;;;22.50;99.90;;;;;;5110465;28;20020;-67
2023/09/11 03:46:16;;;;;;;33.42;27.80;;;22.50;99.90;;;;;;5113715;28;20035;-67
2023/09/11 03:48:41;;;;;;;33.10;28.42;;;22.40;99.90;;;;;;5106131;28;20024;-67
2023/09/11 03:51:07;;;;;;;33.20;27.63;;;22.40;99.90;;;;;;5108018;28;20043;-68
2023/09/11 03:53:33;;;;;;;37.05;28.33;;;22.40;99.90;;;;;;5095192;28;20028;-67
2023/09/11 03:55:59;;;;;;;33.75;28.35;;;22.40;99.90;;;;;;5108438;28;20111;-69
2023/09/11 03:58:25;;;;;;;36.53;28.48;;;22.40;99.90;;;;;;5112907;28;20381;-66
2023/09/11 04:00:50;;;;;;;36.28;28.17;;;22.40;99.90;;;;;;5110345;28;20039;-68
2023/09/11 04:03:16;;;;;;;33.90;28.10;;;22.40;99.90;;;;;;5103680;28;20034;-67
2023/09/11 04:05:42;;;;;;;33.22;29.70;;;22.40;99.90;;;;;;5103300;28;20020;-68
2023/09/11 04:08:08;;;;;;;33.85;28.63;;;22.30;99.90;;;;;;5109269;28;20030;-67
2023/09/11 04:10:33;;;;;;;37.85;27.83;;;22.30;99.90;;;;;;5105343;28;20040;-69
2023/09/11 04:12:59;;;;;;;36.45;27.85;;;22.30;99.90;;;;;;5105336;28;20078;-68
2023/09/11 04:15:25;;;;;;;34.00;29.00;;;22.30;99.90;;;;;;5111552;28;20031;-67
2023/09/11 04:17:54;;;;;;;34.00;29.08;;;22.30;99.90;;;;;;5105505;28;20024;-68
2023/09/11 04:20:20;;;;;;;36.90;31.27;;;22.30;99.90;;;;;;5102261;28;20043;-67
2023/09/11 04:22:46;;;;;;;34.28;30.45;;;22.20;99.90;;;;;;5104193;28;20020;-67
2023/09/11 04:25:11;;;;;;;32.17;28.70;;;22.20;99.90;;;;;;5105207;28;20043;-67
2023/09/11 04:27:37;;;;;;;37.95;30.55;;;22.20;99.90;;;;;;5102049;28;20030;-67
2023/09/11 04:30:03;;;;;;;34.58;29.92;;;22.20;99.90;;;;;;5111565;28;20020;-67
2023/09/11 04:32:30;;;;;;;34.75;29.25;;;22.10;99.90;;;;;;5112052;28;20119;-68
2023/09/11 04:34:55;;;;;;;37.53;29.33;;;22.10;99.90;;;;;;5108205;28;20093;-65
2023/09/11 04:37:21;;;;;;;35.92;29.40;;;22.10;99.90;;;;;;5109832;28;20023;-68
2023/09/11 04:39:47;;;;;;;32.75;28.75;;;22.10;99.90;;;;;;5111972;28;20019;-68
2023/09/11 04:42:12;;;;;;;37.30;29.83;;;22.10;99.90;;;;;;5110554;28;20027;-68
2023/09/11 04:44:38;;;;;;;33.20;27.85;;;22.10;99.90;;;;;;5106947;28;20023;-67
2023/09/11 04:47:03;;;;;;;33.30;29.70;;;22.00;99.90;;;;;;5116740;28;20459;-67
2023/09/11 04:49:29;;;;;;;37.40;29.00;;;22.10;99.90;;;;;;5102109;28;20031;-67
2023/09/11 04:51:54;;;;;;;33.78;28.85;;;22.00;99.90;;;;;;5104665;28;20536;-70
2023/09/11 04:54:20;;;;;;;34.40;28.75;;;22.00;99.90;;;;;;5111890;28;20081;-69
2023/09/11 04:56:46;;;;;;;32.67;28.13;;;22.00;99.90;;;;;;5108958;28;20081;-69
2023/09/11 04:59:11;;;;;;;37.90;29.90;;;22.00;99.90;;;;;;5108136;28;20036;-68
2023/09/11 05:01:37;;;;;;;37.60;28.25;;;22.00;99.90;;;;;;5111404;28;20455;-67
2023/09/11 05:04:03;;;;;;;34.20;29.08;;;22.00;99.90;;;;;;5108122;28;20039;-67
2023/09/11 05:06:30;;;;;;;33.58;29.40;;;22.00;99.90;;;;;;5112962;28;20038;-68
2023/09/11 05:08:55;;;;;;;42.83;30.50;;;21.90;99.90;;;;;;5107547;28;20071;-67
2023/09/11 05:11:21;;;;;;;33.47;29.83;;;21.90;99.90;;;;;;5107037;28;20091;-68
2023/09/11 05:13:46;;;;;;;35.85;30.73;;;21.90;99.90;;;;;;5110701;28;20031;-68
2023/09/11 05:16:12;;;;;;;36.63;29.92;;;21.90;99.90;;;;;;5110361;28;20028;-67
2023/09/11 05:18:37;;;;;;;35.28;30.35;;;21.90;99.90;;;;;;5107430;28;20115;-67
2023/09/11 05:21:03;;;;;;;36.13;29.52;;;21.90;99.90;;;;;;5111159;28;20020;-69
2023/09/11 05:23:29;;;;;;;36.90;29.23;;;21.90;99.90;;;;;;5111983;28;20061;-68
2023/09/11 05:25:54;;;;;;;35.20;28.70;;;21.90;99.90;;;;;;5106457;28;20080;-67
2023/09/11 05:28:20;;;;;;;33.92;28.45;;;21.90;99.90;;;;;;5112339;28;20031;-67
2023/09/11 05:30:45;;;;;;;33.58;27.63;;;21.90;99.90;;;;;;5111989;28;20214;-66
2023/09/11 05:33:11;;;;;;;33.47;27.00;;;22.00;99.90;;;;;;5114804;28;20135;-68
2023/09/11 05:35:38;;;;;;;31.60;28.13;;;21.90;99.90;;;;;;5114816;28;20101;-67
2023/09/11 05:38:03;;;;;;;31.92;27.73;;;22.00;99.90;;;;;;5109018;28;20032;-67
2023/09/11 05:40:29;;;;;;;32.67;27.55;;;22.00;99.90;;;;;;5107067;28;20027;-67
2023/09/11 05:42:55;;;;;;;31.13;27.60;;;21.90;99.90;;;;;;5107370;28;20065;-67
2023/09/11 05:45:20;;;;;;;35.67;26.52;;;22.00;99.90;;;;;;5114600;28;20024;-69
2023/09/11 05:47:46;;;;;;;34.10;27.08;;;21.90;99.90;;;;;;5109547;28;20027;-68
2023/09/11 05:50:12;;;;;;;30.23;26.35;;;21.90;99.90;;;;;;5105633;28;20043;-68
2023/09/11 05:52:37;;;;;;;32.50;25.25;;;21.90;99.90;;;;;;5107454;28;20023;-67
2023/09/11 05:55:03;;;;;;;32.67;24.70;;;21.90;99.90;;;;;;5098491;28;20039;-67
2023/09/11 05:57:28;;;;;;;30.60;23.88;;;21.90;99.90;;;;;;5111931;28;20032;-69
2023/09/11 05:59:54;;;;;;;32.63;24.08;;;22.00;99.90;;;;;;5101704;28;20447;-67
2023/09/11 06:02:19;;;;;;;29.42;24.10;;;22.00;99.90;;;;;;5114744;28;20015;-70
2023/09/11 06:04:45;;;;;;;28.52;24.15;;;22.10;99.90;;;;;;5101229;28;20032;-67
2023/09/11 06:07:11;;;;;;;28.73;24.25;;;22.10;99.90;;;;;;5104654;28;20543;-68
2023/09/11 06:09:37;;;;;;;30.75;24.60;;;22.20;99.90;;;;;;5098936;28;20047;-68
2023/09/11 06:12:03;;;;;;;32.05;23.25;;;22.20;99.90;;;;;;5107588;28;20039;-67
2023/09/11 06:14:28;;;;;;;30.23;24.73;;;22.30;99.90;;;;;;5106373;28;20488;-66
2023/09/11 06:16:54;;;;;;;28.30;22.35;;;22.30;99.90;;;;;;5100010;28;20035;-68
2023/09/11 06:19:19;;;;;;;31.00;24.23;;;22.40;99.90;;;;;;5111908;28;20111;-68
2023/09/11 06:21:45;;;;;;;31.23;23.63;;;22.50;99.90;;;;;;5099766;28;20051;-68
2023/09/11 06:24:11;;;;;;;27.38;23.38;;;22.60;99.90;;;;;;5105990;28;20051;-67
2023/09/11 06:26:37;;;;;;;29.75;22.73;;;22.70;99.90;;;;;;5107396;28;20032;-68
2023/09/11 06:29:03;;;;;;;29.15;23.35;;;22.70;99.90;;;;;;5098902;28;20028;-68
2023/09/11 06:31:30;;;;;;;29.42;22.27;;;22.80;99.90;;;;;;5111075;28;20110;-68
2023/09/11 06:33:56;;;;;;;28.00;21.95;;;22.80;99.90;;;;;;5100735;28;20015;-67
2023/09/11 06:36:21;;;;;;;30.60;21.88;;;22.80;99.90;;;;;;5103308;28;20061;-68
2023/09/11 06:38:47;;;;;;;29.08;21.13;;;22.80;99.90;;;;;;5093394;28;20099;-68
2023/09/11 06:41:13;;;;;;;28.38;21.50;;;22.90;99.90;;;;;;5103965;28;20134;-67
2023/09/11 06:43:38;;;;;;;29.38;21.17;;;22.90;99.90;;;;;;5110165;28;20372;-67
2023/09/11 06:46:04;;;;;;;28.02;21.55;;;23.00;99.90;;;;;;5101769;28;20386;-68
2023/09/11 06:48:29;;;;;;;29.65;21.63;;;23.00;99.90;;;;;;5102767;28;20020;-67
2023/09/11 06:50:55;;;;;;;28.35;21.30;;;23.10;99.90;;;;;;5108888;28;20128;-66
2023/09/11 06:53:20;;;;;;;27.88;20.63;;;23.10;99.90;;;;;;5096891;28;20028;-67
2023/09/11 06:55:47;;;;;;;28.15;21.15;;;23.10;99.90;;;;;;5109097;28;20024;-67
2023/09/11 06:58:13;;;;;;;27.38;21.42;;;23.20;99.90;;;;;;5103627;28;20034;-66
2023/09/11 07:00:39;;;;;;;27.35;21.40;;;23.20;99.90;;;;;;5101930;28;20103;-67
2023/09/11 07:03:05;;;;;;;30.40;22.27;;;23.30;99.90;;;;;;5110263;28;20058;-67
2023/09/11 07:05:30;;;;;;;28.17;21.65;;;23.30;99.90;;;;;;5099702;28;20047;-68
2023/09/11 07:07:56;;;;;;;28.20;21.05;;;23.40;99.90;;;;;;5107562;28;20028;-68
2023/09/11 07:10:22;;;;;;;30.02;21.48;;;23.50;99.90;;;;;;5104030;28;20059;-67
2023/09/11 07:12:49;;;;;;;31.77;20.55;;;23.50;99.90;;;;;;5100149;28;20032;-67
2023/09/11 07:15:16;;;;;;;26.67;19.65;;;23.60;99.90;;;;;;5110837;28;20023;-68
2023/09/11 07:17:42;;;;;;;25.15;17.80;;;23.70;99.90;;;;;;5098500;28;20072;-67
2023/09/11 07:20:09;;;;;;;29.63;17.38;;;23.80;99.90;;;;;;5105779;28;20138;-67
2023/09/11 07:22:35;;;;;;;26.60;17.38;;;24.00;99.90;;;;;;5105997;28;20073;-67
2023/09/11 07:25:00;;;;;;;26.52;15.57;;;24.10;99.90;;;;;;5098244;28;20027;-67
2023/09/11 07:27:33;;;;;;;25.17;15.20;;;24.50;99.90;;;;;;5110858;28;20057;-68
2023/09/11 07:29:59;;;;;;;20.02;11.88;;;24.80;99.90;;;;;;5100720;28;20019;-68
2023/09/11 07:32:25;;;;;;;21.58;11.50;;;25.20;99.90;;;;;;5104158;28;20032;-67
2023/09/11 07:34:51;;;;;;;19.27;11.50;;;26.00;99.90;;;;;;5098975;28;20052;-68
2023/09/11 07:37:17;;;;;;;18.65;10.07;;;26.60;99.90;;;;;;5093569;28;20486;-67
2023/09/11 07:39:42;;;;;;;15.73;8.70;;;27.50;99.90;;;;;;5105271;28;20035;-68
2023/09/11 07:42:08;;;;;;;18.25;9.45;;;28.30;99.90;;;;;;5113516;28;20024;-67
2023/09/11 07:44:33;;;;;;;12.13;7.55;;;29.20;99.90;;;;;;5106241;28;20035;-69
2023/09/11 07:46:59;;;;;;;16.02;7.97;;;29.80;99.90;;;;;;5093225;28;20024;-67
2023/09/11 07:49:24;;;;;;;17.20;7.35;;;30.40;99.90;;;;;;5093082;28;20067;-67
2023/09/11 07:51:50;;;;;;;13.13;6.63;;;31.00;99.30;;;;;;5093379;28;20036;-67
2023/09/11 07:54:16;;;;;;;15.65;6.70;;;31.60;98.00;;;;;;5093202;28;20444;-67
2023/09/11 07:56:41;;;;;;;14.00;6.57;;;32.30;97.00;;;;;;5093482;28;20524;-67
2023/09/11 07:59:07;;;;;;;13.52;6.25;;;33.00;96.00;;;;;;5091959;28;20409;-68
2023/09/11 08:01:32;;;;;;;11.52;6.07;;;33.60;95.00;;;;;;5096267;28;20032;-68
2023/09/11 08:03:58;;;;;;;12.80;6.53;;;34.00;94.10;;;;;;5093469;28;20460;-67
2023/09/11 08:06:24;;;;;;;13.50;6.43;;;34.10;93.60;;;;;;5100533;28;20024;-68
2023/09/11 08:08:50;;;;;;;13.98;6.60;;;34.40;93.40;;;;;;5094832;28;20127;-67
2023/09/11 08:11:17;;;;;;;9.82;5.93;;;34.60;93.00;;;;;;5096794;28;20142;-67
2023/09/11 08:13:46;;;;;;;12.57;6.50;;;35.00;92.50;;;;;;5114014;28;20070;-67
2023/09/11 08:16:12;;;;;;;13.07;6.10;;;35.10;91.80;;;;;;5112708;28;20059;-68
2023/09/11 08:18:38;;;;;;;12.18;6.10;;;35.10;91.60;;;;;;5113782;28;20027;-68
2023/09/11 08:21:04;;;;;;;9.98;5.80;;;35.30;91.60;;;;;;5111641;28;20038;-68
2023/09/11 08:23:30;;;;;;;10.73;5.90;;;35.60;91.20;;;;;;5112869;28;20024;-69
2023/09/11 08:25:57;;;;;;;12.75;5.95;;;35.90;90.70;;;;;;5098966;28;20028;-69
2023/09/11 08:28:22;;;;;;;9.13;5.45;;;36.20;90.40;;;;;;5092963;28;20110;-68
2023/09/11 08:30:50;;;;;;;10.13;5.63;;;36.20;90.10;;;;;;5092810;28;20173;-67
2023/09/11 08:33:16;;;;;;;13.38;6.18;;;36.20;90.10;;;;;;5105080;28;20049;-67
2023/09/11 08:35:42;;;;;;;11.60;6.20;;;36.10;90.30;;;;;;5113297;28;20024;-67
2023/09/11 08:38:08;;;;;;;12.25;6.10;;;36.10;90.20;;;;;;5111006;28;20035;-68
2023/09/11 08:40:34;;;;;;;12.45;6.53;;;36.10;90.20;;;;;;5112369;28;20035;-68
2023/09/11 08:43:00;;;;;;;12.57;6.05;;;36.40;90.00;;;;;;5111463;28;20027;-66
2023/09/11 08:45:26;;;;;;;10.25;5.97;;;36.60;89.80;;;;;;5113413;28;20125;-67
2023/09/11 08:47:56;;;;;;;11.65;5.82;;;36.80;89.70;;;;;;5113250;28;20487;-67
2023/09/11 08:50:30;;;;;;;13.10;5.90;;;37.10;89.00;;;;;;5112970;28;20332;-69
2023/09/11 08:52:57;;;;;;;11.18;5.55;;;37.40;88.50;;;;;;5113468;28;20035;-67
2023/09/11 08:55:24;;;;;;;10.90;5.70;;;37.70;88.40;;;;;;5116933;28;20024;-69
2023/09/11 08:57:51;;;;;;;9.98;5.68;;;38.00;87.30;;;;;;5116834;27;20024;-68
2023/09/11 09:00:17;;;;;;;13.80;5.60;;;38.30;86.40;;;;;;5116677;28;20027;-70
2023/09/11 09:02:43;;;;;;;15.05;5.90;;;38.20;86.30;;;;;;5116682;28;20490;-69
2023/09/11 09:05:09;;;;;;;13.25;6.03;;;38.30;86.20;;;;;;5117060;28;20035;-69
2023/09/11 09:07:37;;;;;;;12.63;6.25;;;38.30;86.50;;;;;;5117030;27;20032;-68
2023/09/11 09:10:04;;;;;;;13.32;5.72;;;38.20;86.10;;;;;;5116944;28;20056;-67
2023/09/11 09:12:29;;;;;;;9.95;5.78;;;38.40;85.60;;;;;;5116103;28;20097;-68
2023/09/11 09:14:55;;;;;;;13.43;5.78;;;38.50;85.40;;;;;;5116528;28;20020;-69
2023/09/11 09:17:21;;;;;;;11.85;6.07;;;38.60;85.50;;;;;;5116851;28;20030;-69
2023/09/11 09:19:49;;;;;;;11.57;5.78;;;38.80;85.30;;;;;;5116613;28;20030;-70
2023/09/11 09:22:15;;;;;;;12.05;5.72;;;38.80;85.20;;;;;;5116579;28;20196;-69
2023/09/11 09:24:53;;;;;;;14.00;7.15;;;38.50;84.70;;;;;;5114950;28;20046;-68
2023/09/11 09:27:20;;;;;;;12.65;6.50;;;38.20;85.40;;;;;;5107396;28;20050;-69
2023/09/11 09:29:47;;;;;;;14.77;6.70;;;38.20;85.50;;;;;;5109430;28;20081;-68
2023/09/11 09:32:13;;;;;;;14.15;6.78;;;38.30;85.00;;;;;;5096876;28;20047;-68
2023/09/11 09:34:53;;;;;;;13.85;6.47;;;38.60;84.70;;;;;;5104399;28;20111;-69
2023/09/11 09:37:20;;;;;;;15.43;6.60;;;38.90;84.40;;;;;;5103821;28;20024;-68
2023/09/11 09:39:49;;;;;;;12.38;6.35;;;39.00;84.00;;;;;;5100897;28;20032;-68
2023/09/11 09:42:14;;;;;;;12.55;7.15;;;38.90;83.90;;;;;;5113454;28;20345;-68
2023/09/11 09:44:43;;;;;;;11.43;7.13;;;38.80;84.00;;;;;;5115425;28;20462;-68
2023/09/11 09:47:11;;;;;;;11.52;6.72;;;38.70;84.20;;;;;;5114149;28;20028;-66
2023/09/11 09:49:54;;;;;;;18.60;6.72;;;38.70;84.30;;;;;;5105496;27;20077;-67
2023/09/11 09:52:26;;;;;;;12.80;6.88;;;38.50;84.60;;;;;;5109000;28;20364;-67
2023/09/11 09:54:57;;;;;;;12.85;7.20;;;38.20;85.00;;;;;;5103881;28;20102;-69
2023/09/11 09:57:24;;;;;;;15.38;7.50;;;37.80;85.90;;;;;;5114678;28;20427;-67
2023/09/11 09:59:53;;;;;;;15.27;8.27;;;37.70;86.30;;;;;;5104342;28;20058;-68
2023/09/11 10:02:34;;;;;;;16.60;8.15;;;37.70;85.90;;;;;;5109813;28;20028;-68
2023/09/11 10:05:08;;;;;;;14.07;7.60;;;37.90;85.80;;;;;;5113370;28;20479;-69
2023/09/11 10:07:42;;;;;;;15.32;7.90;;;38.10;86.30;;;;;;5114942;28;20076;-69
2023/09/11 10:10:21;;;;;;;11.95;6.93;;;37.70;85.90;;;;;;5115645;28;20116;-67
2023/09/11 10:12:56;;;;;;;15.20;7.55;;;37.50;86.30;;;;;;5094331;28;20039;-68
2023/09/11 10:15:22;;;;;;;14.32;6.95;;;37.70;85.90;;;;;;5094643;28;20392;-68
2023/09/11 10:17:52;;;;;;;13.25;7.38;;;38.00;85.30;;;;;;5094904;28;20483;-67
2023/09/11 10:20:18;;;;;;;14.93;7.70;;;38.20;84.80;;;;;;5102783;28;20085;-67
2023/09/11 10:22:44;;;;;;;18.10;8.02;;;37.90;85.30;;;;;;5104570;28;20031;-67
2023/09/11 10:25:09;;;;;;;19.35;8.30;;;38.00;85.70;;;;;;5108399;28;20028;-68
2023/09/11 10:27:35;;;;;;;15.10;8.00;;;38.10;85.20;;;;;;5114823;28;20019;-69
2023/09/11 10:30:04;;;;;;;17.30;8.50;;;38.30;84.80;;;;;;5104267;28;20024;-68
2023/09/11 10:32:37;;;;;;;17.33;8.48;;;38.30;84.70;;;;;;5108574;28;20054;-67
2023/09/11 10:35:04;;;;;;;13.68;8.30;;;38.00;84.80;;;;;;5097764;28;20734;-67
2023/09/11 10:37:33;;;;;;;16.35;8.63;;;37.80;85.50;;;;;;5112255;28;20046;-67
2023/09/11 10:40:00;;;;;;;15.52;8.85;;;37.60;85.80;;;;;;5112591;28;20032;-68
2023/09/11 10:42:26;;;;;;;21.65;10.68;;;37.70;85.70;;;;;;5114453;28;20020;-67
2023/09/11 10:44:53;;;;;;;22.10;9.88;;;37.80;85.50;;;;;;5097671;28;20069;-67
2023/09/11 10:47:19;;;;;;;17.98;10.45;;;37.80;85.60;;;;;;5112392;28;20058;-67
2023/09/11 10:49:49;;;;;;;18.83;10.63;;;37.80;85.30;;;;;;5114238;28;20027;-67
2023/09/11 10:52:16;;;;;;;19.10;11.43;;;37.40;85.70;;;;;;5100661;28;20085;-68
2023/09/11 10:54:42;;;;;;;20.58;11.00;;;37.00;86.50;;;;;;5110680;28;20035;-69
2023/09/11 10:57:08;;;;;;;19.35;11.77;;;36.90;86.40;;;;;;5097250;28;20024;-67
2023/09/11 10:59:34;;;;;;;22.05;11.63;;;36.60;86.70;;;;;;5109807;28;20378;-67
2023/09/11 11:02:01;;;;;;;21.67;12.88;;;36.30;87.40;;;;;;5113252;28;20459;-68
2023/09/11 11:04:31;;;;;;;20.48;12.70;;;36.30;87.00;;;;;;5113126;28;20490;-68
2023/09/11 11:06:58;;;;;;;22.38;12.77;;;36.40;87.00;;;;;;5112452;28;20505;-67
2023/09/11 11:09:29;;;;;;;21.40;12.02;;;36.60;86.70;;;;;;5107277;28;20048;-68
2023/09/11 11:12:13;;;;;;;22.80;13.37;;;36.50;86.90;;;;;;5103005;28;20074;-68
2023/09/11 11:14:38;;;;;;;26.10;13.57;;;36.30;87.20;;;;;;5112440;28;20038;-71
2023/09/11 11:17:10;;;;;;;21.92;12.95;;;35.90;87.70;;;;;;5108719;28;20131;-68
2023/09/11 11:19:45;;;;;;;20.92;13.38;;;35.70;88.50;;;;;;5100117;28;20088;-68
2023/09/11 11:22:29;;;;;;;25.70;14.05;;;35.60;88.70;;;;;;5106082;28;20610;-68
2023/09/11 11:24:54;;;;;;;21.95;13.45;;;35.10;89.60;;;;;;5110466;28;20477;-67
2023/09/11 11:27:20;;;;;;;23.27;15.95;;;34.50;90.20;;;;;;5114214;28;20083;-68
2023/09/11 11:29:47;;;;;;;24.20;16.08;;;33.70;90.80;;;;;;5113982;28;20039;-69
2023/09/11 11:32:14;;;;;;;24.73;16.30;;;32.90;91.60;;;;;;5114040;28;20040;-68
2023/09/11 11:34:43;;;;;;;22.75;16.02;;;32.10;92.50;;;;;;5100115;28;20114;-68
2023/09/11 11:37:11;;;;;;;27.83;17.20;;;31.60;93.20;;;;;;5093423;28;20028;-68
2023/09/11 11:39:37;;;;;;;27.92;17.65;;;31.20;93.70;;;;;;5107552;28;20039;-68
2023/09/11 11:42:03;;;;;;;27.15;18.25;;;30.70;94.20;;;;;;5114051;28;20028;-67
2023/09/11 11:44:33;;;;;;;27.70;19.33;;;30.40;94.70;;;;;;5113297;28;20047;-67
2023/09/11 11:46:59;;;;;;;29.48;19.60;;;30.00;95.40;;;;;;5113850;28;20028;-68
2023/09/11 11:49:31;;;;;;;29.92;19.08;;;29.60;96.20;;;;;;5113586;28;20027;-68
2023/09/11 11:52:04;;;;;;;30.23;21.23;;;29.20;96.60;;;;;;5113903;28;20039;-68
2023/09/11 11:54:32;;;;;;;33.47;23.60;;;28.90;97.30;;;;;;5112366;28;20035;-70
2023/09/11 11:56:59;;;;;;;30.67;22.17;;;28.50;98.00;;;;;;5113494;28;20024;-68
2023/09/11 11:59:37;;;;;;;33.28;23.00;;;28.20;98.80;;;;;;5113622;28;20145;-67
2023/09/11 12:02:03;;;;;;;33.35;22.77;;;27.90;99.30;;;;;;5113849;28;20455;-67
2023/09/11 12:04:29;;;;;;;36.17;24.30;;;27.60;99.90;;;;;;5113036;28;20042;-67
2023/09/11 12:06:57;;;;;;;36.65;25.88;;;27.40;99.90;;;;;;5113766;28;20081;-68
2023/09/11 12:09:23;;;;;;;35.90;24.48;;;27.20;99.90;;;;;;5112650;28;20096;-67
2023/09/11 12:11:49;;;;;;;40.58;25.20;;;27.00;99.90;;;;;;5109151;28;20059;-68
2023/09/11 12:14:16;;;;;;;37.85;25.48;;;26.90;99.90;;;;;;5097087;28;20033;-67
2023/09/11 12:16:42;;;;;;;40.88;26.35;;;26.80;99.90;;;;;;5096959;28;20028;-68
2023/09/11 12:19:08;;;;;;;39.63;25.42;;;26.50;99.90;;;;;;5104696;28;20028;-68
2023/09/11 12:21:34;;;;;;;44.53;26.67;;;26.30;99.90;;;;;;5099127;28;20035;-67
2023/09/11 12:24:00;;;;;;;39.67;25.67;;;26.10;99.90;;;;;;5102355;28;20028;-66
2023/09/11 12:26:29;;;;;;;37.25;25.90;;;25.90;99.90;;;;;;5110616;28;20422;-68
2023/09/11 12:28:56;;;;;;;42.53;28.50;;;25.70;99.90;;;;;;5109762;28;20115;-68